sensor_id;sensor_type;location;lat;lon;timestamp;P1;durP1;ratioP1;P2;durP2;ratioP2
65033;SDS011;51601;51.356;12.458;2023-05-09T00:00:55;12.55;;;6.93;;
65033;SDS011;51601;51.356;12.458;2023-05-09T00:05:14;13.87;;;6.83;;
65033;SDS011;51601;51.356;12.458;2023-05-09T00:09:33;11.82;;;6.57;;
65033;SDS011;51601;51.356;12.458;2023-05-09T00:13:53;12.50;;;7.03;;
65033;SDS011;51601;51.356;12.458;2023-05-09T00:18:11;12.43;;;6.97;;
65033;SDS011;51601;51.356;12.458;2023-05-09T00:22:29;11.15;;;6.40;;
65033;SDS011;51601;51.356;12.458;2023-05-09T00:26:48;12.55;;;6.20;;
65033;SDS011;51601;51.356;12.458;2023-05-09T00:31:08;11.97;;;6.93;;
65033;SDS011;51601;51.356;12.458;2023-05-09T00:35:26;13.15;;;6.93;;
65033;SDS011;51601;51.356;12.458;2023-05-09T00:39:44;15.82;;;7.40;;
65033;SDS011;51601;51.356;12.458;2023-05-09T00:44:03;12.45;;;6.80;;
65033;SDS011;51601;51.356;12.458;2023-05-09T00:48:23;13.43;;;6.67;;
65033;SDS011;51601;51.356;12.458;2023-05-09T00:52:41;12.20;;;6.80;;
65033;SDS011;51601;51.356;12.458;2023-05-09T00:56:59;13.02;;;6.38;;
65033;SDS011;51601;51.356;12.458;2023-05-09T01:01:19;13.50;;;6.73;;
65033;SDS011;51601;51.356;12.458;2023-05-09T01:05:40;12.80;;;6.45;;
65033;SDS011;51601;51.356;12.458;2023-05-09T01:10:05;12.18;;;7.15;;
65033;SDS011;51601;51.356;12.458;2023-05-09T01:14:29;15.57;;;7.43;;
65033;SDS011;51601;51.356;12.458;2023-05-09T01:18:57;14.25;;;7.22;;
65033;SDS011;51601;51.356;12.458;2023-05-09T01:23:30;15.52;;;6.97;;
65033;SDS011;51601;51.356;12.458;2023-05-09T01:28:18;13.43;;;6.50;;
65033;SDS011;51601;51.356;12.458;2023-05-09T01:32:52;12.47;;;6.03;;
65033;SDS011;51601;51.356;12.458;2023-05-09T01:37:17;13.90;;;6.75;;
65033;SDS011;51601;51.356;12.458;2023-05-09T01:41:41;12.07;;;6.32;;
65033;SDS011;51601;51.356;12.458;2023-05-09T01:45:59;16.30;;;7.03;;
65033;SDS011;51601;51.356;12.458;2023-05-09T01:50:22;12.38;;;6.80;;
65033;SDS011;51601;51.356;12.458;2023-05-09T01:54:41;12.25;;;6.13;;
65033;SDS011;51601;51.356;12.458;2023-05-09T01:59:03;10.57;;;6.10;;
65033;SDS011;51601;51.356;12.458;2023-05-09T02:03:24;10.68;;;5.68;;
65033;SDS011;51601;51.356;12.458;2023-05-09T02:07:43;10.70;;;4.63;;
65033;SDS011;51601;51.356;12.458;2023-05-09T02:12:03;10.52;;;5.22;;
65033;SDS011;51601;51.356;12.458;2023-05-09T02:16:21;10.50;;;5.80;;
65033;SDS011;51601;51.356;12.458;2023-05-09T02:20:39;11.30;;;6.40;;
65033;SDS011;51601;51.356;12.458;2023-05-09T02:24:58;11.52;;;5.68;;
65033;SDS011;51601;51.356;12.458;2023-05-09T02:29:22;12.00;;;6.20;;
65033;SDS011;51601;51.356;12.458;2023-05-09T02:33:46;10.25;;;5.45;;
65033;SDS011;51601;51.356;12.458;2023-05-09T02:38:04;11.52;;;5.60;;
65033;SDS011;51601;51.356;12.458;2023-05-09T02:42:27;12.00;;;5.90;;
65033;SDS011;51601;51.356;12.458;2023-05-09T02:46:46;14.90;;;6.25;;
65033;SDS011;51601;51.356;12.458;2023-05-09T02:51:04;13.00;;;6.20;;
65033;SDS011;51601;51.356;12.458;2023-05-09T02:55:22;10.40;;;4.63;;
65033;SDS011;51601;51.356;12.458;2023-05-09T02:59:41;10.17;;;5.10;;
65033;SDS011;51601;51.356;12.458;2023-05-09T03:04:01;6.57;;;3.53;;
65033;SDS011;51601;51.356;12.458;2023-05-09T03:08:19;12.85;;;6.20;;
65033;SDS011;51601;51.356;12.458;2023-05-09T03:12:37;10.77;;;5.90;;
65033;SDS011;51601;51.356;12.458;2023-05-09T03:17:03;13.43;;;5.95;;
65033;SDS011;51601;51.356;12.458;2023-05-09T03:21:23;10.35;;;5.68;;
65033;SDS011;51601;51.356;12.458;2023-05-09T03:25:41;11.47;;;5.13;;
65033;SDS011;51601;51.356;12.458;2023-05-09T03:29:59;13.50;;;5.80;;
65033;SDS011;51601;51.356;12.458;2023-05-09T03:34:18;12.98;;;5.90;;
65033;SDS011;51601;51.356;12.458;2023-05-09T03:38:38;10.57;;;5.38;;
65033;SDS011;51601;51.356;12.458;2023-05-09T03:42:56;13.30;;;6.13;;
65033;SDS011;51601;51.356;12.458;2023-05-09T03:47:14;12.75;;;6.03;;
65033;SDS011;51601;51.356;12.458;2023-05-09T03:51:33;15.45;;;5.55;;
65033;SDS011;51601;51.356;12.458;2023-05-09T03:55:56;10.37;;;5.20;;
65033;SDS011;51601;51.356;12.458;2023-05-09T04:00:18;10.63;;;5.45;;
65033;SDS011;51601;51.356;12.458;2023-05-09T04:04:48;9.43;;;4.72;;
65033;SDS011;51601;51.356;12.458;2023-05-09T04:09:10;12.53;;;5.60;;
65033;SDS011;51601;51.356;12.458;2023-05-09T04:13:30;10.45;;;5.07;;
65033;SDS011;51601;51.356;12.458;2023-05-09T04:17:51;9.50;;;5.22;;
65033;SDS011;51601;51.356;12.458;2023-05-09T04:22:09;9.13;;;4.80;;
65033;SDS011;51601;51.356;12.458;2023-05-09T04:26:29;9.43;;;4.93;;
65033;SDS011;51601;51.356;12.458;2023-05-09T04:30:48;8.95;;;4.60;;
65033;SDS011;51601;51.356;12.458;2023-05-09T04:35:10;9.45;;;4.65;;
65033;SDS011;51601;51.356;12.458;2023-05-09T04:39:31;8.97;;;4.87;;
65033;SDS011;51601;51.356;12.458;2023-05-09T04:43:59;10.82;;;4.70;;
65033;SDS011;51601;51.356;12.458;2023-05-09T04:48:19;8.18;;;4.60;;
65033;SDS011;51601;51.356;12.458;2023-05-09T04:52:37;29.67;;;14.43;;
65033;SDS011;51601;51.356;12.458;2023-05-09T04:56:55;13.27;;;6.05;;
65033;SDS011;51601;51.356;12.458;2023-05-09T05:01:30;10.07;;;5.97;;
65033;SDS011;51601;51.356;12.458;2023-05-09T05:05:50;8.93;;;5.03;;
65033;SDS011;51601;51.356;12.458;2023-05-09T05:10:08;8.40;;;4.57;;
65033;SDS011;51601;51.356;12.458;2023-05-09T05:14:29;9.52;;;4.85;;
65033;SDS011;51601;51.356;12.458;2023-05-09T05:18:48;7.70;;;4.07;;
65033;SDS011;51601;51.356;12.458;2023-05-09T05:23:08;8.93;;;4.63;;
65033;SDS011;51601;51.356;12.458;2023-05-09T05:27:26;9.07;;;4.80;;
65033;SDS011;51601;51.356;12.458;2023-05-09T05:31:44;10.80;;;4.50;;
65033;SDS011;51601;51.356;12.458;2023-05-09T05:36:04;8.37;;;4.60;;
65033;SDS011;51601;51.356;12.458;2023-05-09T05:40:23;8.50;;;4.57;;
65033;SDS011;51601;51.356;12.458;2023-05-09T05:44:44;9.57;;;4.65;;
65033;SDS011;51601;51.356;12.458;2023-05-09T05:49:03;10.77;;;3.80;;
65033;SDS011;51601;51.356;12.458;2023-05-09T05:53:25;8.43;;;3.70;;
65033;SDS011;51601;51.356;12.458;2023-05-09T05:57:45;7.18;;;3.67;;
65033;SDS011;51601;51.356;12.458;2023-05-09T06:02:06;7.80;;;3.55;;
65033;SDS011;51601;51.356;12.458;2023-05-09T06:06:27;7.20;;;3.83;;
65033;SDS011;51601;51.356;12.458;2023-05-09T06:10:46;5.93;;;3.05;;
65033;SDS011;51601;51.356;12.458;2023-05-09T06:15:06;8.80;;;4.35;;
65033;SDS011;51601;51.356;12.458;2023-05-09T06:19:30;7.90;;;3.73;;
65033;SDS011;51601;51.356;12.458;2023-05-09T06:23:48;9.52;;;4.20;;
65033;SDS011;51601;51.356;12.458;2023-05-09T06:28:27;9.40;;;3.97;;
65033;SDS011;51601;51.356;12.458;2023-05-09T06:32:46;7.97;;;4.13;;
65033;SDS011;51601;51.356;12.458;2023-05-09T06:37:04;8.10;;;3.70;;
65033;SDS011;51601;51.356;12.458;2023-05-09T06:41:22;7.13;;;3.50;;
65033;SDS011;51601;51.356;12.458;2023-05-09T06:45:42;7.30;;;4.07;;
65033;SDS011;51601;51.356;12.458;2023-05-09T06:50:02;7.30;;;4.03;;
65033;SDS011;51601;51.356;12.458;2023-05-09T06:54:19;7.97;;;3.90;;
65033;SDS011;51601;51.356;12.458;2023-05-09T06:58:37;7.50;;;3.90;;
65033;SDS011;51601;51.356;12.458;2023-05-09T07:02:57;7.17;;;4.07;;
65033;SDS011;51601;51.356;12.458;2023-05-09T07:07:17;7.65;;;3.78;;
65033;SDS011;51601;51.356;12.458;2023-05-09T07:11:35;7.93;;;3.90;;
65033;SDS011;51601;51.356;12.458;2023-05-09T07:15:53;7.95;;;3.83;;
65033;SDS011;51601;51.356;12.458;2023-05-09T07:20:12;7.80;;;3.70;;
65033;SDS011;51601;51.356;12.458;2023-05-09T07:24:32;7.55;;;3.30;;
65033;SDS011;51601;51.356;12.458;2023-05-09T07:28:50;8.52;;;3.70;;
65033;SDS011;51601;51.356;12.458;2023-05-09T07:33:08;7.73;;;3.70;;
65033;SDS011;51601;51.356;12.458;2023-05-09T07:37:28;8.07;;;4.30;;
65033;SDS011;51601;51.356;12.458;2023-05-09T07:41:47;6.78;;;3.60;;
65033;SDS011;51601;51.356;12.458;2023-05-09T07:46:05;6.63;;;3.27;;
65033;SDS011;51601;51.356;12.458;2023-05-09T07:50:23;7.68;;;4.05;;
65033;SDS011;51601;51.356;12.458;2023-05-09T07:54:43;11.88;;;3.90;;
65033;SDS011;51601;51.356;12.458;2023-05-09T07:59:03;8.20;;;3.95;;
65033;SDS011;51601;51.356;12.458;2023-05-09T08:03:21;8.43;;;3.77;;
65033;SDS011;51601;51.356;12.458;2023-05-09T08:07:39;8.18;;;3.17;;
65033;SDS011;51601;51.356;12.458;2023-05-09T08:11:58;6.95;;;3.40;;
65033;SDS011;51601;51.356;12.458;2023-05-09T08:16:18;8.73;;;3.93;;
65033;SDS011;51601;51.356;12.458;2023-05-09T08:20:36;7.05;;;3.50;;
65033;SDS011;51601;51.356;12.458;2023-05-09T08:24:54;8.15;;;3.78;;
65033;SDS011;51601;51.356;12.458;2023-05-09T08:29:13;6.97;;;4.00;;
65033;SDS011;51601;51.356;12.458;2023-05-09T08:33:33;8.07;;;3.70;;
65033;SDS011;51601;51.356;12.458;2023-05-09T08:37:51;9.75;;;3.67;;
65033;SDS011;51601;51.356;12.458;2023-05-09T08:42:09;7.30;;;3.78;;
65033;SDS011;51601;51.356;12.458;2023-05-09T08:46:32;6.87;;;3.43;;
65033;SDS011;51601;51.356;12.458;2023-05-09T08:50:55;6.93;;;3.58;;
65033;SDS011;51601;51.356;12.458;2023-05-09T08:55:13;8.05;;;3.42;;
65033;SDS011;51601;51.356;12.458;2023-05-09T08:59:31;7.93;;;3.80;;
65033;SDS011;51601;51.356;12.458;2023-05-09T09:03:53;7.28;;;3.30;;
65033;SDS011;51601;51.356;12.458;2023-05-09T09:08:13;7.72;;;3.70;;
65033;SDS011;51601;51.356;12.458;2023-05-09T09:12:31;9.33;;;3.57;;
65033;SDS011;51601;51.356;12.458;2023-05-09T09:16:53;7.15;;;3.30;;
65033;SDS011;51601;51.356;12.458;2023-05-09T09:21:15;7.13;;;3.03;;
65033;SDS011;51601;51.356;12.458;2023-05-09T09:25:34;6.40;;;3.33;;
65033;SDS011;51601;51.356;12.458;2023-05-09T09:29:52;7.57;;;2.77;;
65033;SDS011;51601;51.356;12.458;2023-05-09T09:34:11;7.97;;;4.03;;
65033;SDS011;51601;51.356;12.458;2023-05-09T09:38:38;7.78;;;2.97;;
65033;SDS011;51601;51.356;12.458;2023-05-09T09:42:59;5.53;;;2.83;;
65033;SDS011;51601;51.356;12.458;2023-05-09T09:47:17;6.68;;;3.08;;
65033;SDS011;51601;51.356;12.458;2023-05-09T09:51:35;7.38;;;3.28;;
65033;SDS011;51601;51.356;12.458;2023-05-09T09:55:55;6.43;;;3.17;;
65033;SDS011;51601;51.356;12.458;2023-05-09T10:00:15;6.57;;;3.20;;
65033;SDS011;51601;51.356;12.458;2023-05-09T10:04:36;7.20;;;3.15;;
65033;SDS011;51601;51.356;12.458;2023-05-09T10:08:56;6.28;;;3.00;;
65033;SDS011;51601;51.356;12.458;2023-05-09T10:13:16;6.23;;;2.73;;
65033;SDS011;51601;51.356;12.458;2023-05-09T10:17:36;6.60;;;3.30;;
65033;SDS011;51601;51.356;12.458;2023-05-09T10:21:55;6.15;;;2.63;;
65033;SDS011;51601;51.356;12.458;2023-05-09T10:26:16;7.37;;;3.10;;
65033;SDS011;51601;51.356;12.458;2023-05-09T10:30:43;6.32;;;2.80;;
65033;SDS011;51601;51.356;12.458;2023-05-09T10:35:12;6.70;;;3.28;;
65033;SDS011;51601;51.356;12.458;2023-05-09T10:39:34;7.10;;;3.00;;
65033;SDS011;51601;51.356;12.458;2023-05-09T10:43:55;7.00;;;3.22;;
65033;SDS011;51601;51.356;12.458;2023-05-09T10:48:17;6.97;;;3.10;;
65033;SDS011;51601;51.356;12.458;2023-05-09T10:57:30;10.17;;;3.40;;
65033;SDS011;51601;51.356;12.458;2023-05-09T11:01:50;7.95;;;3.10;;
65033;SDS011;51601;51.356;12.458;2023-05-09T11:11:04;8.23;;;3.40;;
65033;SDS011;51601;51.356;12.458;2023-05-09T11:15:24;6.15;;;2.92;;
65033;SDS011;51601;51.356;12.458;2023-05-09T11:19:58;9.65;;;3.33;;
65033;SDS011;51601;51.356;12.458;2023-05-09T11:24:24;7.07;;;3.20;;
65033;SDS011;51601;51.356;12.458;2023-05-09T11:28:50;6.75;;;3.30;;
65033;SDS011;51601;51.356;12.458;2023-05-09T11:33:20;7.78;;;3.22;;
65033;SDS011;51601;51.356;12.458;2023-05-09T11:37:44;8.48;;;3.40;;
65033;SDS011;51601;51.356;12.458;2023-05-09T11:42:06;7.93;;;2.77;;
65033;SDS011;51601;51.356;12.458;2023-05-09T11:46:26;6.90;;;3.08;;
65033;SDS011;51601;51.356;12.458;2023-05-09T11:50:45;6.25;;;2.88;;
65033;SDS011;51601;51.356;12.458;2023-05-09T11:55:05;6.50;;;3.20;;
65033;SDS011;51601;51.356;12.458;2023-05-09T11:59:31;6.45;;;3.10;;
65033;SDS011;51601;51.356;12.458;2023-05-09T12:03:50;7.63;;;3.55;;
65033;SDS011;51601;51.356;12.458;2023-05-09T12:08:08;7.50;;;3.27;;
65033;SDS011;51601;51.356;12.458;2023-05-09T12:12:29;7.50;;;3.42;;
65033;SDS011;51601;51.356;12.458;2023-05-09T12:16:52;6.07;;;2.67;;
65033;SDS011;51601;51.356;12.458;2023-05-09T12:21:12;7.65;;;2.90;;
65033;SDS011;51601;51.356;12.458;2023-05-09T12:25:30;7.63;;;3.40;;
65033;SDS011;51601;51.356;12.458;2023-05-09T12:29:48;7.47;;;3.38;;
65033;SDS011;51601;51.356;12.458;2023-05-09T12:34:10;5.97;;;2.53;;
65033;SDS011;51601;51.356;12.458;2023-05-09T12:38:30;8.43;;;3.30;;
65033;SDS011;51601;51.356;12.458;2023-05-09T12:42:48;6.80;;;3.25;;
65033;SDS011;51601;51.356;12.458;2023-05-09T12:47:09;6.57;;;2.97;;
65033;SDS011;51601;51.356;12.458;2023-05-09T12:51:32;8.10;;;2.80;;
65033;SDS011;51601;51.356;12.458;2023-05-09T12:55:55;7.53;;;2.55;;
65033;SDS011;51601;51.356;12.458;2023-05-09T13:00:19;7.20;;;3.00;;
65033;SDS011;51601;51.356;12.458;2023-05-09T13:04:37;6.45;;;2.55;;
65033;SDS011;51601;51.356;12.458;2023-05-09T13:08:57;6.10;;;2.37;;
65033;SDS011;51601;51.356;12.458;2023-05-09T13:13:16;6.95;;;2.63;;
65033;SDS011;51601;51.356;12.458;2023-05-09T13:17:34;6.05;;;2.45;;
65033;SDS011;51601;51.356;12.458;2023-05-09T13:21:53;7.50;;;2.30;;
65033;SDS011;51601;51.356;12.458;2023-05-09T13:26:15;6.57;;;2.65;;
65033;SDS011;51601;51.356;12.458;2023-05-09T13:30:35;5.57;;;1.90;;
65033;SDS011;51601;51.356;12.458;2023-05-09T13:34:53;4.73;;;2.03;;
65033;SDS011;51601;51.356;12.458;2023-05-09T13:39:11;8.00;;;2.13;;
65033;SDS011;51601;51.356;12.458;2023-05-09T13:43:30;5.60;;;1.90;;
65033;SDS011;51601;51.356;12.458;2023-05-09T13:47:50;6.10;;;1.70;;
65033;SDS011;51601;51.356;12.458;2023-05-09T13:52:08;3.67;;;1.57;;
65033;SDS011;51601;51.356;12.458;2023-05-09T13:56:26;4.80;;;1.88;;
65033;SDS011;51601;51.356;12.458;2023-05-09T14:00:45;4.55;;;1.80;;
65033;SDS011;51601;51.356;12.458;2023-05-09T14:05:05;6.80;;;1.90;;
65033;SDS011;51601;51.356;12.458;2023-05-09T14:09:23;4.97;;;1.70;;
65033;SDS011;51601;51.356;12.458;2023-05-09T14:13:44;4.50;;;1.70;;
65033;SDS011;51601;51.356;12.458;2023-05-09T14:18:04;4.60;;;1.70;;
65033;SDS011;51601;51.356;12.458;2023-05-09T14:22:23;4.30;;;1.85;;
65033;SDS011;51601;51.356;12.458;2023-05-09T14:26:42;4.65;;;2.05;;
65033;SDS011;51601;51.356;12.458;2023-05-09T14:30:59;5.22;;;1.95;;
65033;SDS011;51601;51.356;12.458;2023-05-09T14:35:22;4.73;;;1.77;;
65033;SDS011;51601;51.356;12.458;2023-05-09T14:39:42;5.35;;;2.10;;
65033;SDS011;51601;51.356;12.458;2023-05-09T14:44:03;5.28;;;1.60;;
65033;SDS011;51601;51.356;12.458;2023-05-09T14:48:21;3.13;;;1.23;;
65033;SDS011;51601;51.356;12.458;2023-05-09T14:52:41;5.63;;;1.90;;
65033;SDS011;51601;51.356;12.458;2023-05-09T14:57:00;5.78;;;1.50;;
65033;SDS011;51601;51.356;12.458;2023-05-09T15:01:21;6.10;;;1.70;;
65033;SDS011;51601;51.356;12.458;2023-05-09T15:05:39;4.05;;;1.80;;
65033;SDS011;51601;51.356;12.458;2023-05-09T15:10:02;5.88;;;2.10;;
65033;SDS011;51601;51.356;12.458;2023-05-09T15:14:22;4.65;;;1.73;;
65033;SDS011;51601;51.356;12.458;2023-05-09T15:18:40;4.83;;;1.60;;
65033;SDS011;51601;51.356;12.458;2023-05-09T15:23:01;4.65;;;1.92;;
65033;SDS011;51601;51.356;12.458;2023-05-09T15:27:23;4.50;;;1.60;;
65033;SDS011;51601;51.356;12.458;2023-05-09T15:31:43;6.07;;;1.83;;
65033;SDS011;51601;51.356;12.458;2023-05-09T15:36:01;4.85;;;2.05;;
65033;SDS011;51601;51.356;12.458;2023-05-09T15:40:19;3.63;;;1.42;;
65033;SDS011;51601;51.356;12.458;2023-05-09T15:44:39;5.67;;;2.03;;
65033;SDS011;51601;51.356;12.458;2023-05-09T15:48:58;4.45;;;1.70;;
65033;SDS011;51601;51.356;12.458;2023-05-09T15:53:16;6.15;;;2.22;;
65033;SDS011;51601;51.356;12.458;2023-05-09T15:57:34;5.13;;;1.90;;
65033;SDS011;51601;51.356;12.458;2023-05-09T16:01:54;6.43;;;2.23;;
65033;SDS011;51601;51.356;12.458;2023-05-09T16:06:14;5.32;;;1.77;;
65033;SDS011;51601;51.356;12.458;2023-05-09T16:10:35;6.35;;;2.00;;
65033;SDS011;51601;51.356;12.458;2023-05-09T16:14:53;5.70;;;2.37;;
65033;SDS011;51601;51.356;12.458;2023-05-09T16:19:12;5.05;;;2.00;;
65033;SDS011;51601;51.356;12.458;2023-05-09T16:23:32;5.03;;;1.98;;
65033;SDS011;51601;51.356;12.458;2023-05-09T16:27:53;5.20;;;1.93;;
65033;SDS011;51601;51.356;12.458;2023-05-09T16:32:11;5.25;;;2.30;;
65033;SDS011;51601;51.356;12.458;2023-05-09T16:36:31;5.47;;;2.20;;
65033;SDS011;51601;51.356;12.458;2023-05-09T16:40:50;5.80;;;2.40;;
65033;SDS011;51601;51.356;12.458;2023-05-09T16:45:09;5.17;;;2.03;;
65033;SDS011;51601;51.356;12.458;2023-05-09T16:49:31;5.90;;;2.80;;
65033;SDS011;51601;51.356;12.458;2023-05-09T16:53:52;6.95;;;2.72;;
65033;SDS011;51601;51.356;12.458;2023-05-09T16:58:12;7.33;;;2.90;;
65033;SDS011;51601;51.356;12.458;2023-05-09T17:02:30;5.78;;;2.53;;
65033;SDS011;51601;51.356;12.458;2023-05-09T17:06:48;6.07;;;3.00;;
65033;SDS011;51601;51.356;12.458;2023-05-09T17:11:07;5.67;;;2.57;;
65033;SDS011;51601;51.356;12.458;2023-05-09T17:15:27;6.70;;;2.83;;
65033;SDS011;51601;51.356;12.458;2023-05-09T17:19:45;6.95;;;3.03;;
65033;SDS011;51601;51.356;12.458;2023-05-09T17:24:03;7.00;;;3.03;;
65033;SDS011;51601;51.356;12.458;2023-05-09T17:28:23;5.87;;;2.50;;
65033;SDS011;51601;51.356;12.458;2023-05-09T17:32:42;7.30;;;2.67;;
65033;SDS011;51601;51.356;12.458;2023-05-09T17:37:01;6.47;;;2.20;;
65033;SDS011;51601;51.356;12.458;2023-05-09T17:41:22;6.13;;;2.50;;
65033;SDS011;51601;51.356;12.458;2023-05-09T17:45:41;5.70;;;2.80;;
65033;SDS011;51601;51.356;12.458;2023-05-09T17:50:01;7.82;;;3.00;;
65033;SDS011;51601;51.356;12.458;2023-05-09T17:54:19;6.57;;;2.50;;
65033;SDS011;51601;51.356;12.458;2023-05-09T17:58:37;7.30;;;3.03;;
65033;SDS011;51601;51.356;12.458;2023-05-09T18:02:57;9.13;;;3.20;;
65033;SDS011;51601;51.356;12.458;2023-05-09T18:07:16;7.35;;;3.35;;
65033;SDS011;51601;51.356;12.458;2023-05-09T18:11:34;6.83;;;2.90;;
65033;SDS011;51601;51.356;12.458;2023-05-09T18:15:52;8.13;;;3.38;;
65033;SDS011;51601;51.356;12.458;2023-05-09T18:20:18;6.72;;;3.30;;
65033;SDS011;51601;51.356;12.458;2023-05-09T18:24:37;8.33;;;3.13;;
65033;SDS011;51601;51.356;12.458;2023-05-09T18:28:56;6.35;;;3.13;;
65033;SDS011;51601;51.356;12.458;2023-05-09T18:33:14;6.10;;;2.40;;
65033;SDS011;51601;51.356;12.458;2023-05-09T18:37:33;7.63;;;3.20;;
65033;SDS011;51601;51.356;12.458;2023-05-09T18:41:53;7.43;;;3.30;;
65033;SDS011;51601;51.356;12.458;2023-05-09T18:46:11;6.90;;;3.65;;
65033;SDS011;51601;51.356;12.458;2023-05-09T18:50:32;7.30;;;3.58;;
65033;SDS011;51601;51.356;12.458;2023-05-09T18:54:55;6.90;;;3.20;;
65033;SDS011;51601;51.356;12.458;2023-05-09T18:59:14;7.80;;;3.28;;
65033;SDS011;51601;51.356;12.458;2023-05-09T19:03:32;6.57;;;3.17;;
65033;SDS011;51601;51.356;12.458;2023-05-09T19:07:51;7.30;;;3.40;;
65033;SDS011;51601;51.356;12.458;2023-05-09T19:12:13;5.93;;;2.83;;
65033;SDS011;51601;51.356;12.458;2023-05-09T19:16:33;8.20;;;3.38;;
65033;SDS011;51601;51.356;12.458;2023-05-09T19:20:51;7.70;;;3.70;;
65033;SDS011;51601;51.356;12.458;2023-05-09T19:25:09;6.53;;;2.92;;
65033;SDS011;51601;51.356;12.458;2023-05-09T19:29:28;6.30;;;2.65;;
65033;SDS011;51601;51.356;12.458;2023-05-09T19:33:48;6.63;;;3.40;;
65033;SDS011;51601;51.356;12.458;2023-05-09T19:38:06;6.67;;;3.17;;
65033;SDS011;51601;51.356;12.458;2023-05-09T19:42:27;7.65;;;3.50;;
65033;SDS011;51601;51.356;12.458;2023-05-09T19:46:47;6.53;;;3.33;;
65033;SDS011;51601;51.356;12.458;2023-05-09T19:51:06;7.70;;;3.97;;
65033;SDS011;51601;51.356;12.458;2023-05-09T19:55:27;6.63;;;3.63;;
65033;SDS011;51601;51.356;12.458;2023-05-09T19:59:46;7.43;;;3.90;;
65033;SDS011;51601;51.356;12.458;2023-05-09T20:04:05;6.43;;;2.90;;
65033;SDS011;51601;51.356;12.458;2023-05-09T20:08:25;7.53;;;4.03;;
65033;SDS011;51601;51.356;12.458;2023-05-09T20:12:43;7.72;;;3.47;;
65033;SDS011;51601;51.356;12.458;2023-05-09T20:17:01;6.70;;;3.60;;
65033;SDS011;51601;51.356;12.458;2023-05-09T20:21:23;7.13;;;3.50;;
65033;SDS011;51601;51.356;12.458;2023-05-09T20:25:43;6.68;;;3.50;;
65033;SDS011;51601;51.356;12.458;2023-05-09T20:30:01;6.97;;;2.83;;
65033;SDS011;51601;51.356;12.458;2023-05-09T20:34:23;9.57;;;3.50;;
65033;SDS011;51601;51.356;12.458;2023-05-09T20:38:51;7.88;;;3.97;;
65033;SDS011;51601;51.356;12.458;2023-05-09T20:43:11;8.73;;;4.05;;
65033;SDS011;51601;51.356;12.458;2023-05-09T20:47:29;7.70;;;3.80;;
65033;SDS011;51601;51.356;12.458;2023-05-09T20:51:47;7.65;;;4.07;;
65033;SDS011;51601;51.356;12.458;2023-05-09T20:56:07;8.50;;;3.95;;
65033;SDS011;51601;51.356;12.458;2023-05-09T21:00:26;9.20;;;4.10;;
65033;SDS011;51601;51.356;12.458;2023-05-09T21:04:44;7.87;;;3.63;;
65033;SDS011;51601;51.356;12.458;2023-05-09T21:09:02;8.77;;;3.83;;
65033;SDS011;51601;51.356;12.458;2023-05-09T21:13:21;7.40;;;3.63;;
65033;SDS011;51601;51.356;12.458;2023-05-09T21:17:41;6.97;;;3.40;;
65033;SDS011;51601;51.356;12.458;2023-05-09T21:22:02;7.95;;;3.40;;
65033;SDS011;51601;51.356;12.458;2023-05-09T21:26:21;7.28;;;3.65;;
65033;SDS011;51601;51.356;12.458;2023-05-09T21:30:40;7.43;;;3.60;;
65033;SDS011;51601;51.356;12.458;2023-05-09T21:35:00;7.90;;;3.70;;
65033;SDS011;51601;51.356;12.458;2023-05-09T21:39:18;8.02;;;3.88;;
65033;SDS011;51601;51.356;12.458;2023-05-09T21:43:36;7.80;;;3.85;;
65033;SDS011;51601;51.356;12.458;2023-05-09T21:47:55;7.40;;;3.97;;
65033;SDS011;51601;51.356;12.458;2023-05-09T21:52:15;7.95;;;3.58;;
65033;SDS011;51601;51.356;12.458;2023-05-09T21:56:33;8.20;;;3.75;;
65033;SDS011;51601;51.356;12.458;2023-05-09T22:00:51;7.20;;;3.47;;
65033;SDS011;51601;51.356;12.458;2023-05-09T22:05:11;7.55;;;3.90;;
65033;SDS011;51601;51.356;12.458;2023-05-09T22:09:31;8.05;;;3.80;;
65033;SDS011;51601;51.356;12.458;2023-05-09T22:13:48;8.87;;;3.93;;
65033;SDS011;51601;51.356;12.458;2023-05-09T22:18:06;7.18;;;3.63;;
65033;SDS011;51601;51.356;12.458;2023-05-09T22:22:26;9.05;;;3.63;;
65033;SDS011;51601;51.356;12.458;2023-05-09T22:26:46;8.68;;;4.00;;
65033;SDS011;51601;51.356;12.458;2023-05-09T22:31:04;8.90;;;3.10;;
65033;SDS011;51601;51.356;12.458;2023-05-09T22:35:22;7.55;;;3.80;;
65033;SDS011;51601;51.356;12.458;2023-05-09T22:39:41;6.43;;;2.90;;
65033;SDS011;51601;51.356;12.458;2023-05-09T22:44:01;9.07;;;3.90;;
65033;SDS011;51601;51.356;12.458;2023-05-09T22:48:19;6.95;;;3.53;;
65033;SDS011;51601;51.356;12.458;2023-05-09T22:52:37;7.43;;;3.85;;
65033;SDS011;51601;51.356;12.458;2023-05-09T22:56:56;8.63;;;3.60;;
65033;SDS011;51601;51.356;12.458;2023-05-09T23:01:16;7.70;;;3.92;;
65033;SDS011;51601;51.356;12.458;2023-05-09T23:05:34;7.93;;;3.78;;
65033;SDS011;51601;51.356;12.458;2023-05-09T23:09:52;9.00;;;4.25;;
65033;SDS011;51601;51.356;12.458;2023-05-09T23:14:12;7.73;;;3.50;;
65033;SDS011;51601;51.356;12.458;2023-05-09T23:18:32;7.10;;;3.70;;
65033;SDS011;51601;51.356;12.458;2023-05-09T23:22:50;9.35;;;4.03;;
65033;SDS011;51601;51.356;12.458;2023-05-09T23:27:08;6.63;;;3.27;;
65033;SDS011;51601;51.356;12.458;2023-05-09T23:31:27;9.00;;;3.50;;
65033;SDS011;51601;51.356;12.458;2023-05-09T23:35:47;7.38;;;3.67;;
65033;SDS011;51601;51.356;12.458;2023-05-09T23:40:05;9.73;;;4.33;;
65033;SDS011;51601;51.356;12.458;2023-05-09T23:44:26;8.13;;;3.78;;
65033;SDS011;51601;51.356;12.458;2023-05-09T23:48:45;8.18;;;3.80;;
65033;SDS011;51601;51.356;12.458;2023-05-09T23:53:05;8.70;;;3.63;;
65033;SDS011;51601;51.356;12.458;2023-05-09T23:57:23;9.10;;;3.83;;
